createdAt,value
2022-09-21T00:01:56.189Z,10.75
2022-09-21T00:04:19.904Z,14.07
2022-09-21T00:06:43.322Z,9.77
2022-09-21T00:09:08.283Z,11.18
2022-09-21T00:11:34.445Z,10.70
2022-09-21T00:14:05.535Z,8.82
2022-09-21T00:16:30.091Z,11.77
2022-09-21T00:18:53.765Z,10.32
2022-09-21T00:21:18.562Z,9.63
2022-09-21T00:23:42.940Z,9.95
2022-09-21T00:26:12.567Z,11.00
2022-09-21T00:28:41.574Z,8.70
2022-09-21T00:31:06.836Z,11.75
2022-09-21T00:33:30.289Z,10.90
2022-09-21T00:35:53.680Z,10.75
2022-09-21T00:38:20.176Z,8.07
2022-09-21T00:40:43.873Z,8.40
2022-09-21T00:43:16.905Z,11.20
2022-09-21T00:45:42.912Z,12.75
2022-09-21T00:48:06.586Z,9.70
2022-09-21T00:50:30.173Z,9.60
2022-09-21T00:52:57.463Z,8.10
2022-09-21T00:55:26.012Z,10.55
2022-09-21T00:57:53.399Z,9.43
2022-09-21T01:00:16.991Z,11.82
2022-09-21T01:02:41.863Z,11.35
2022-09-21T01:05:09.011Z,9.68
2022-09-21T01:07:35.908Z,12.18
2022-09-21T01:10:03.159Z,6.88
2022-09-21T01:12:47.212Z,9.68
2022-09-21T01:15:29.629Z,9.20
2022-09-21T01:18:04.737Z,10.85
2022-09-21T01:21:03.169Z,9.43
2022-09-21T01:24:10.506Z,8.82
2022-09-21T01:26:51.783Z,10.15
2022-09-21T01:29:27.529Z,7.88
2022-09-21T01:31:59.860Z,8.75
2022-09-21T01:34:29.468Z,11.68
2022-09-21T01:36:56.212Z,12.52
2022-09-21T01:39:21.856Z,9.68
2022-09-21T01:41:47.507Z,8.20
2022-09-21T01:44:16.578Z,10.80
2022-09-21T01:46:42.006Z,10.55
2022-09-21T01:49:12.486Z,8.93
2022-09-21T01:51:37.462Z,9.63
2022-09-21T01:54:07.115Z,10.10
2022-09-21T01:56:37.579Z,9.93
2022-09-21T01:59:10.242Z,10.95
2022-09-21T02:01:38.808Z,7.55
2022-09-21T02:04:09.550Z,11.95
2022-09-21T02:06:33.704Z,10.82
2022-09-21T02:08:58.113Z,11.88
2022-09-21T02:11:25.099Z,9.35
2022-09-21T02:13:53.851Z,11.05
2022-09-21T02:16:39.725Z,10.07
2022-09-21T02:19:13.713Z,10.57
2022-09-21T02:21:57.372Z,7.82
2022-09-21T02:24:32.151Z,9.38
2022-09-21T02:27:05.409Z,11.90
2022-09-21T02:29:42.564Z,8.38
2022-09-21T02:32:12.369Z,10.35
2022-09-21T02:34:46.805Z,8.77
2022-09-21T02:37:19.773Z,9.68
2022-09-21T02:39:51.026Z,10.68
2022-09-21T02:42:20.514Z,8.80
2022-09-21T02:44:55.667Z,8.77
2022-09-21T02:47:25.666Z,8.88
2022-09-21T02:49:55.875Z,10.07
2022-09-21T02:52:20.866Z,8.25
2022-09-21T02:54:49.234Z,7.32
2022-09-21T02:57:13.249Z,9.32
2022-09-21T02:59:36.787Z,8.98
2022-09-21T03:02:00.574Z,11.35
2022-09-21T03:04:24.622Z,8.82
2022-09-21T03:06:49.685Z,10.02
2022-09-21T03:09:17.211Z,8.20
2022-09-21T03:11:42.452Z,10.65
2022-09-21T03:14:08.857Z,8.45
2022-09-21T03:16:32.345Z,10.48
2022-09-21T03:18:55.756Z,8.60
2022-09-21T03:21:19.399Z,8.77
2022-09-21T03:23:47.428Z,10.77
2022-09-21T03:26:10.872Z,9.05
2022-09-21T03:28:34.296Z,10.00
2022-09-21T03:30:57.941Z,10.57
2022-09-21T03:33:22.415Z,11.38
2022-09-21T03:35:46.072Z,10.27
2022-09-21T03:38:09.744Z,8.05
2022-09-21T03:40:35.182Z,7.65
2022-09-21T03:42:58.793Z,12.57
2022-09-21T03:45:23.121Z,8.50
2022-09-21T03:47:47.502Z,10.70
2022-09-21T03:50:13.087Z,8.82
2022-09-21T03:52:37.713Z,9.02
2022-09-21T03:55:01.264Z,8.32
2022-09-21T03:57:26.801Z,12.50
2022-09-21T03:59:50.350Z,8.30
2022-09-21T04:02:13.873Z,8.10
2022-09-21T04:04:37.425Z,7.53
2022-09-21T04:07:01.092Z,7.30
2022-09-21T04:09:24.505Z,9.40
2022-09-21T04:11:48.248Z,11.52
2022-09-21T04:14:14.406Z,8.32
2022-09-21T04:16:37.747Z,9.55
2022-09-21T04:19:04.368Z,9.05
2022-09-21T04:21:27.779Z,8.50
2022-09-21T04:23:51.873Z,8.90
2022-09-21T04:26:34.612Z,8.38
2022-09-21T04:28:58.516Z,8.57
2022-09-21T04:31:24.757Z,7.05
2022-09-21T04:33:50.909Z,7.32
2022-09-21T04:36:14.421Z,8.82
2022-09-21T04:38:38.246Z,8.52
2022-09-21T04:41:01.887Z,10.73
2022-09-21T04:43:25.479Z,8.55
2022-09-21T04:45:52.189Z,9.20
2022-09-21T04:48:18.047Z,11.90
2022-09-21T04:50:42.005Z,9.32
2022-09-21T04:53:09.390Z,8.80
2022-09-21T04:55:32.984Z,8.13
2022-09-21T04:57:56.424Z,7.13
2022-09-21T05:00:20.062Z,10.75
2022-09-21T05:02:43.587Z,8.30
2022-09-21T05:05:09.463Z,7.82
2022-09-21T05:07:32.808Z,9.40
2022-09-21T05:10:04.168Z,9.48
2022-09-21T05:12:27.650Z,10.10
2022-09-21T05:14:51.174Z,8.68
2022-09-21T05:17:15.075Z,7.75
2022-09-21T05:19:38.527Z,8.55
2022-09-21T05:22:03.326Z,8.35
2022-09-21T05:24:29.988Z,7.05
2022-09-21T05:26:53.437Z,9.80
2022-09-21T05:29:17.664Z,10.13
2022-09-21T05:31:47.835Z,7.25
2022-09-21T05:34:33.011Z,7.20
2022-09-21T05:37:07.570Z,10.55
2022-09-21T05:39:31.944Z,7.63
2022-09-21T05:41:56.102Z,9.55
2022-09-21T05:44:21.597Z,8.98
2022-09-21T05:47:00.503Z,8.77
2022-09-21T05:49:36.627Z,8.02
2022-09-21T05:52:10.900Z,8.65
2022-09-21T05:54:52.548Z,10.45
2022-09-21T05:57:30.534Z,12.40
2022-09-21T06:00:06.702Z,8.85
2022-09-21T06:02:55.080Z,12.55
2022-09-21T06:05:20.122Z,11.93
2022-09-21T06:07:45.038Z,14.80
2022-09-21T06:10:10.361Z,10.35
2022-09-21T06:12:33.871Z,13.60
2022-09-21T06:14:58.631Z,13.25
2022-09-21T06:17:22.102Z,12.38
2022-09-21T06:19:45.894Z,11.35
2022-09-21T06:22:09.376Z,12.05
2022-09-21T06:24:34.423Z,10.20
2022-09-21T06:26:58.170Z,15.77
2022-09-21T06:29:23.630Z,14.40
2022-09-21T06:31:47.138Z,15.57
2022-09-21T06:34:10.597Z,17.05
2022-09-21T06:36:34.173Z,17.30
2022-09-21T06:38:57.832Z,16.83
2022-09-21T06:41:22.603Z,18.05
2022-09-21T06:43:46.102Z,15.23
2022-09-21T06:46:09.700Z,15.32
2022-09-21T06:48:35.424Z,10.07
2022-09-21T06:50:59.974Z,11.20
2022-09-21T06:53:23.721Z,11.75
2022-09-21T06:55:47.343Z,11.23
2022-09-21T06:58:12.194Z,10.93
2022-09-21T07:00:35.790Z,11.45
2022-09-21T07:02:59.417Z,11.30
2022-09-21T07:05:23.056Z,12.88
2022-09-21T07:07:47.676Z,13.13
2022-09-21T07:10:15.787Z,12.85
2022-09-21T07:12:42.110Z,15.23
2022-09-21T07:15:10.380Z,16.05
2022-09-21T07:17:34.942Z,15.52
2022-09-21T07:19:58.503Z,16.58
2022-09-21T07:22:29.903Z,14.27
2022-09-21T07:24:53.440Z,18.23
2022-09-21T07:27:16.896Z,16.08
2022-09-21T07:29:40.429Z,19.42
2022-09-21T07:32:05.768Z,12.57
2022-09-21T07:34:30.367Z,10.52
2022-09-21T07:36:54.067Z,13.07
2022-09-21T07:39:17.492Z,14.18
2022-09-21T07:41:40.973Z,10.57
2022-09-21T07:44:04.897Z,13.93
2022-09-21T07:46:28.325Z,16.63
2022-09-21T07:48:54.995Z,13.02
2022-09-21T07:51:18.451Z,13.27
2022-09-21T07:53:44.444Z,12.88
2022-09-21T07:56:10.676Z,15.77
2022-09-21T07:58:51.848Z,11.88
2022-09-21T08:01:15.641Z,16.05
2022-09-21T08:03:39.096Z,11.23
2022-09-21T08:06:04.243Z,12.15
2022-09-21T08:08:27.793Z,12.30
2022-09-21T08:10:53.089Z,13.55
2022-09-21T08:13:16.563Z,12.88
2022-09-21T08:15:51.633Z,13.95
2022-09-21T08:18:15.207Z,17.23
2022-09-21T08:20:39.114Z,19.55
2022-09-21T08:23:04.248Z,18.15
2022-09-21T08:25:27.779Z,15.10
2022-09-21T08:27:51.224Z,24.02
2022-09-21T08:30:14.901Z,13.88
2022-09-21T08:32:50.369Z,16.48
2022-09-21T08:35:15.012Z,16.17
2022-09-21T08:37:38.603Z,12.57
2022-09-21T08:40:03.815Z,12.70
2022-09-21T08:42:41.462Z,11.52
2022-09-21T08:45:11.248Z,14.02
2022-09-21T08:47:43.703Z,14.02
2022-09-21T08:50:30.331Z,17.75
2022-09-21T08:53:00.987Z,15.23
2022-09-21T08:55:26.114Z,18.67
2022-09-21T08:57:49.697Z,15.55
2022-09-21T09:00:17.619Z,13.73
2022-09-21T09:03:08.706Z,14.77
2022-09-21T09:05:44.864Z,16.17
2022-09-21T09:08:24.335Z,14.65
2022-09-21T09:11:02.613Z,11.98
2022-09-21T09:13:57.661Z,8.73
2022-09-21T09:16:33.277Z,10.75
2022-09-21T09:19:01.675Z,6.18
2022-09-21T09:21:32.562Z,6.28
2022-09-21T09:24:03.254Z,7.07
2022-09-21T09:26:35.434Z,9.82
2022-09-21T09:29:04.736Z,11.88
2022-09-21T09:31:32.871Z,10.80
2022-09-21T09:34:01.770Z,6.93
2022-09-21T09:36:53.972Z,10.30
2022-09-21T09:39:15.903Z,8.07
2022-09-21T09:42:31.882Z,8.80
2022-09-21T09:45:18.650Z,10.60
2022-09-21T09:47:57.059Z,8.60
2022-09-21T09:50:28.460Z,11.23
2022-09-21T09:52:54.359Z,9.23
2022-09-21T09:55:22.170Z,10.75
2022-09-21T09:57:47.260Z,6.50
2022-09-21T10:00:16.721Z,5.90
2022-09-21T10:02:49.456Z,6.43
2022-09-21T10:05:23.664Z,9.15
2022-09-21T10:07:48.012Z,9.02
2022-09-21T10:10:32.495Z,7.75
2022-09-21T10:13:05.172Z,6.72
2022-09-21T10:15:29.166Z,7.80
2022-09-21T10:18:04.356Z,7.38
2022-09-21T10:20:30.898Z,7.07
2022-09-21T10:22:57.090Z,8.60
2022-09-21T10:25:22.674Z,7.43
2022-09-21T10:27:49.617Z,7.57
2022-09-21T10:30:35.336Z,9.93
2022-09-21T10:33:00.730Z,7.95
2022-09-21T10:35:25.170Z,8.60
2022-09-21T10:37:53.591Z,6.65
2022-09-21T10:40:31.079Z,8.57
2022-09-21T10:42:58.607Z,10.18
2022-09-21T10:45:26.571Z,7.60
2022-09-21T10:47:53.256Z,6.90
2022-09-21T10:50:28.243Z,10.20
2022-09-21T10:52:58.112Z,9.63
2022-09-21T10:55:23.904Z,7.40
2022-09-21T10:57:48.429Z,5.25
2022-09-21T11:00:35.702Z,9.13
2022-09-21T11:03:01.735Z,8.57
2022-09-21T11:05:31.451Z,6.93
2022-09-21T11:08:01.431Z,7.03
2022-09-21T11:10:35.027Z,8.20
2022-09-21T11:13:17.857Z,7.57
2022-09-21T11:15:51.748Z,6.78
2022-09-21T11:18:24.318Z,6.57
2022-09-21T11:20:52.553Z,6.78
2022-09-21T11:23:37.673Z,5.35
2022-09-21T11:26:10.704Z,5.15
2022-09-21T11:28:41.950Z,8.77
2022-09-21T11:31:29.628Z,8.57
2022-09-21T11:34:13.293Z,7.65
2022-09-21T11:36:50.862Z,8.00
2022-09-21T11:39:28.451Z,10.65
2022-09-21T11:42:06.924Z,7.05
2022-09-21T11:44:50.940Z,4.85
2022-09-21T11:47:38.549Z,5.85
2022-09-21T11:50:32.148Z,4.43
2022-09-21T11:53:11.800Z,4.88
2022-09-21T11:56:02.374Z,6.88
2022-09-21T11:58:32.818Z,4.47
2022-09-21T12:01:10.100Z,5.60
2022-09-21T12:03:59.818Z,5.90
2022-09-21T12:06:44.711Z,1.88
2022-09-21T12:09:48.359Z,2.83
2022-09-21T12:12:17.120Z,3.00
2022-09-21T12:14:55.612Z,3.90
2022-09-21T12:17:27.584Z,3.20
2022-09-21T12:20:03.808Z,4.53
2022-09-21T12:22:30.980Z,8.07
2022-09-21T12:25:02.196Z,5.28
2022-09-21T12:27:30.405Z,3.22
2022-09-21T12:29:59.413Z,3.15
2022-09-21T12:32:29.692Z,5.20
2022-09-21T12:34:57.694Z,1.40
2022-09-21T12:37:31.660Z,1.63
2022-09-21T12:40:04.136Z,1.38
2022-09-21T12:42:35.693Z,3.40
2022-09-21T12:45:06.142Z,4.10
2022-09-21T12:47:47.741Z,6.80
2022-09-21T12:50:22.413Z,4.65
2022-09-21T12:52:46.108Z,3.38
2022-09-21T12:55:36.301Z,2.10
2022-09-21T12:58:15.472Z,3.25
2022-09-21T13:00:48.953Z,3.75
2022-09-21T13:03:20.656Z,2.65
2022-09-21T13:06:08.532Z,1.83
2022-09-21T13:08:37.035Z,1.13
2022-09-21T13:11:04.710Z,4.57
2022-09-21T13:13:34.131Z,1.83
2022-09-21T13:16:00.053Z,1.58
2022-09-21T13:18:35.843Z,1.88
2022-09-21T13:21:02.256Z,2.97
2022-09-21T13:23:30.282Z,3.70
2022-09-21T13:26:04.422Z,1.95
2022-09-21T13:29:04.360Z,2.42
2022-09-21T13:31:42.849Z,2.20
2022-09-21T13:34:26.054Z,3.15
2022-09-21T13:37:32.619Z,1.63
2022-09-21T13:40:44.545Z,1.75
2022-09-21T13:43:25.461Z,1.95
2022-09-21T13:45:58.311Z,2.28
2022-09-21T13:48:29.629Z,4.30
2022-09-21T13:50:53.916Z,4.10
2022-09-21T13:53:25.543Z,4.65
2022-09-21T13:55:53.887Z,6.03
2022-09-21T13:58:26.381Z,2.88
2022-09-21T14:00:55.393Z,6.82
2022-09-21T14:03:27.277Z,4.55
2022-09-21T14:05:53.598Z,6.03
2022-09-21T14:08:27.429Z,5.25
2022-09-21T14:10:55.992Z,6.97
2022-09-21T14:13:35.582Z,4.25
2022-09-21T14:16:55.805Z,6.50
2022-09-21T14:20:07.548Z,8.63
2022-09-21T14:22:39.941Z,4.03
2022-09-21T14:25:51.035Z,4.32
2022-09-21T14:28:15.028Z,7.07
2022-09-21T14:30:39.578Z,6.28
2022-09-21T14:33:23.735Z,4.03
2022-09-21T14:35:48.799Z,5.68
2022-09-21T14:38:20.535Z,7.00
2022-09-21T14:40:50.141Z,12.02
2022-09-21T14:43:20.906Z,3.83
2022-09-21T14:46:02.502Z,4.32
2022-09-21T14:48:40.685Z,5.78
2022-09-21T14:51:23.481Z,6.28
2022-09-21T14:54:19.274Z,4.88
2022-09-21T14:57:01.366Z,7.47
2022-09-21T15:00:05.523Z,5.50
2022-09-21T15:02:35.515Z,4.57
2022-09-21T15:05:15.527Z,4.63
2022-09-21T15:08:05.420Z,3.80
2022-09-21T15:10:53.079Z,4.43
2022-09-21T15:13:43.362Z,6.40
2022-09-21T15:16:39.787Z,7.10
2022-09-21T15:19:16.298Z,5.28
2022-09-21T15:21:44.554Z,7.28
2022-09-21T15:24:22.010Z,6.95
2022-09-21T15:26:46.325Z,7.63
2022-09-21T15:29:24.522Z,4.05
2022-09-21T15:31:48.262Z,7.30
2022-09-21T15:34:15.145Z,5.18
2022-09-21T15:36:41.299Z,4.90
2022-09-21T15:39:05.003Z,5.22
2022-09-21T15:41:44.967Z,7.03
2022-09-21T15:44:17.426Z,6.60
2022-09-21T15:46:44.122Z,5.60
2022-09-21T15:49:15.312Z,3.00
2022-09-21T15:51:45.871Z,4.60
2022-09-21T15:54:21.245Z,6.22
2022-09-21T15:56:45.967Z,6.22
2022-09-21T15:59:20.115Z,5.07
2022-09-21T16:01:47.650Z,4.45
2022-09-21T16:04:18.523Z,8.65
2022-09-21T16:06:46.869Z,4.90
2022-09-21T16:09:42.629Z,6.18
2022-09-21T16:12:38.784Z,3.92
2022-09-21T16:15:09.766Z,3.83
2022-09-21T16:17:38.528Z,5.32
2022-09-21T16:20:17.349Z,6.03
2022-09-21T16:22:43.540Z,4.53
2022-09-21T16:25:25.114Z,5.20
2022-09-21T16:27:53.903Z,9.20
2022-09-21T16:30:48.734Z,8.77
2022-09-21T16:33:42.330Z,8.90
2022-09-21T16:36:32.514Z,6.70
2022-09-21T16:38:56.093Z,6.05
2022-09-21T16:41:20.172Z,5.55
2022-09-21T16:43:45.212Z,7.45
2022-09-21T16:46:10.358Z,6.20
2022-09-21T16:48:33.783Z,5.68
2022-09-21T16:50:57.241Z,7.55
2022-09-21T16:53:23.487Z,4.45
2022-09-21T16:55:48.317Z,4.82
2022-09-21T16:58:11.968Z,5.20
2022-09-21T17:00:42.134Z,4.32
2022-09-21T17:03:07.636Z,7.38
2022-09-21T17:05:31.108Z,5.35
2022-09-21T17:07:57.499Z,6.47
2022-09-21T17:10:24.226Z,6.18
2022-09-21T17:12:47.813Z,2.95
2022-09-21T17:15:14.438Z,6.03
2022-09-21T17:17:38.008Z,5.47
2022-09-21T17:20:17.289Z,4.32
2022-09-21T17:22:40.835Z,9.48
2022-09-21T17:25:04.972Z,5.78
2022-09-21T17:27:29.158Z,7.70
2022-09-21T17:29:53.965Z,5.20
2022-09-21T17:32:21.240Z,4.95
2022-09-21T17:34:46.093Z,7.18
2022-09-21T17:37:11.043Z,7.82
2022-09-21T17:39:34.669Z,4.35
2022-09-21T17:42:04.044Z,6.47
2022-09-21T17:44:49.308Z,7.82
2022-09-21T17:47:21.937Z,5.53
2022-09-21T17:49:45.988Z,7.70
2022-09-21T17:52:35.527Z,6.55
2022-09-21T17:55:04.967Z,9.02
2022-09-21T17:57:41.974Z,5.72
2022-09-21T18:00:15.550Z,7.43
2022-09-21T18:02:39.471Z,8.82
2022-09-21T18:05:16.062Z,7.28
2022-09-21T18:07:42.205Z,9.43
2022-09-21T18:10:07.261Z,9.90
2022-09-21T18:12:50.371Z,7.88
2022-09-21T18:15:23.036Z,12.25
2022-09-21T18:18:03.826Z,9.07
2022-09-21T18:20:42.938Z,7.03
2022-09-21T18:23:20.659Z,7.80
2022-09-21T18:25:49.638Z,10.10
2022-09-21T18:28:20.525Z,11.63
2022-09-21T18:30:54.640Z,15.13
2022-09-21T18:33:27.378Z,13.25
2022-09-21T18:36:04.749Z,12.10
2022-09-21T18:38:36.350Z,14.15
2022-09-21T18:41:17.911Z,13.32
2022-09-21T18:43:58.084Z,11.82
2022-09-21T18:46:30.127Z,12.95
2022-09-21T18:49:03.868Z,15.35
2022-09-21T18:51:36.550Z,14.13
2022-09-21T18:54:02.574Z,11.40
2022-09-21T18:56:27.757Z,12.70
2022-09-21T18:58:52.173Z,11.50
2022-09-21T19:01:18.976Z,13.60
2022-09-21T19:03:44.089Z,10.23
2022-09-21T19:06:26.373Z,10.27
2022-09-21T19:08:57.545Z,11.10
2022-09-21T19:11:31.761Z,9.68
2022-09-21T19:14:01.960Z,9.88
2022-09-21T19:16:34.000Z,10.40
2022-09-21T19:19:16.264Z,9.18
2022-09-21T19:21:46.972Z,11.73
2022-09-21T19:24:21.605Z,10.75
2022-09-21T19:27:03.190Z,8.85
2022-09-21T19:29:43.175Z,7.03
2022-09-21T19:32:15.758Z,13.68
2022-09-21T19:34:39.774Z,8.18
2022-09-21T19:37:07.596Z,8.15
2022-09-21T19:39:32.289Z,9.73
2022-09-21T19:42:11.435Z,12.40
2022-09-21T19:44:56.237Z,9.13
2022-09-21T19:47:30.407Z,12.68
2022-09-21T19:49:56.315Z,11.23
2022-09-21T19:52:27.912Z,14.88
2022-09-21T19:55:09.737Z,14.13
2022-09-21T19:58:07.963Z,36.30
2022-09-21T20:00:33.026Z,46.80
2022-09-21T20:03:07.376Z,70.88
2022-09-21T20:05:41.180Z,131.55
2022-09-21T20:08:13.760Z,165.50
2022-09-21T20:10:58.579Z,134.25
2022-09-21T20:13:36.593Z,106.53
2022-09-21T20:16:07.659Z,91.50
2022-09-21T20:18:39.858Z,70.35
2022-09-21T20:21:03.974Z,56.97
2022-09-21T20:23:28.748Z,45.25
2022-09-21T20:25:57.888Z,39.53
2022-09-21T20:28:23.778Z,33.20
2022-09-21T20:30:47.339Z,32.53
2022-09-21T20:33:16.706Z,27.90
2022-09-21T20:35:40.142Z,27.00
2022-09-21T20:38:03.869Z,48.80
2022-09-21T20:40:28.993Z,55.65
2022-09-21T20:42:53.327Z,59.88
2022-09-21T20:45:19.244Z,62.45
2022-09-21T20:47:42.847Z,58.70
2022-09-21T20:50:10.061Z,53.38
2022-09-21T20:52:33.952Z,46.40
2022-09-21T20:54:57.609Z,37.85
2022-09-21T20:57:21.193Z,31.00
2022-09-21T20:59:44.714Z,23.35
2022-09-21T21:02:12.455Z,23.05
2022-09-21T21:04:35.938Z,19.73
2022-09-21T21:06:59.450Z,20.67
2022-09-21T21:09:23.191Z,19.42
2022-09-21T21:11:46.588Z,16.02
2022-09-21T21:14:10.187Z,16.60
2022-09-21T21:16:34.620Z,14.85
2022-09-21T21:18:59.671Z,19.52
2022-09-21T21:21:24.709Z,17.13
2022-09-21T21:24:08.256Z,15.75
2022-09-21T21:26:57.305Z,17.02
2022-09-21T21:29:15.541Z,25.27
2022-09-21T21:31:39.886Z,47.85
2022-09-21T21:34:05.214Z,54.10
2022-09-21T21:36:29.123Z,40.88
2022-09-21T21:38:53.699Z,48.95
2022-09-21T21:41:17.915Z,48.63
2022-09-21T21:43:42.896Z,45.63
2022-09-21T21:46:08.806Z,50.30
2022-09-21T21:48:32.555Z,44.17
2022-09-21T21:51:01.723Z,51.13
2022-09-21T21:53:25.285Z,56.47
2022-09-21T21:55:48.905Z,53.80
2022-09-21T21:58:12.666Z,50.38
2022-09-21T22:00:36.134Z,48.58
2022-09-21T22:03:02.484Z,36.28
2022-09-21T22:05:26.087Z,34.30
2022-09-21T22:07:51.067Z,30.77
2022-09-21T22:10:14.633Z,30.10
2022-09-21T22:12:38.175Z,24.95
2022-09-21T22:15:02.783Z,22.52
2022-09-21T22:17:26.691Z,23.60
2022-09-21T22:19:50.230Z,24.50
2022-09-21T22:22:13.799Z,27.83
2022-09-21T22:24:38.723Z,33.65
2022-09-21T22:27:02.200Z,28.05
2022-09-21T22:29:25.881Z,30.65
2022-09-21T22:31:51.678Z,24.40
2022-09-21T22:34:15.939Z,24.90
2022-09-21T22:36:40.437Z,26.27
2022-09-21T22:39:05.406Z,27.85
2022-09-21T22:41:32.830Z,30.25
2022-09-21T22:43:58.294Z,30.45
2022-09-21T22:46:22.839Z,32.17
2022-09-21T22:48:47.159Z,29.98
2022-09-21T22:51:10.926Z,29.42
2022-09-21T22:53:34.340Z,26.23
2022-09-21T22:56:07.263Z,21.67
2022-09-21T22:58:32.913Z,24.15
2022-09-21T23:01:09.132Z,29.50
2022-09-21T23:03:32.770Z,33.65
2022-09-21T23:05:58.169Z,34.78
2022-09-21T23:08:21.633Z,32.33
2022-09-21T23:10:45.239Z,30.67
2022-09-21T23:13:08.703Z,31.65
2022-09-21T23:15:33.754Z,27.05
2022-09-21T23:17:57.298Z,27.67
2022-09-21T23:20:20.774Z,25.63
2022-09-21T23:22:44.497Z,25.25
2022-09-21T23:25:09.425Z,23.92
2022-09-21T23:27:33.206Z,23.38
2022-09-21T23:29:56.646Z,24.70
2022-09-21T23:32:21.541Z,23.33
2022-09-21T23:34:45.253Z,20.55
2022-09-21T23:37:11.788Z,18.25
2022-09-21T23:39:35.258Z,16.00
2022-09-21T23:41:58.883Z,16.70
2022-09-21T23:44:22.419Z,17.83
2022-09-21T23:46:45.945Z,17.15
2022-09-21T23:49:11.260Z,17.45
2022-09-21T23:51:35.200Z,18.42
2022-09-21T23:53:59.218Z,18.05
2022-09-21T23:56:24.276Z,14.75
2022-09-21T23:58:48.352Z,16.45
